X  Close Metar Aviation Weather Data     EBBR Brussels Airport
Temperature
0°C Temperature
-2°C Dewpoint
87% Humidity



Wind
3 KM/H
2 MPH
1 M/S
2 KTS



30°
NNE
Current Conditions

Clear Clear
Pressure 1027.92 (hPa) - 30.35 (inHg)
Visibility 6.2 (mile) - 10 (km)
Airport
Airport-code EBBR

Location: Brussels Airport
Distance: 14 (km)

Metar:
EBBR 160150Z 03002KT CAVOK M00/M02 Q1028 NOSIG

Time: 2021-04-16 03:50 CEST